sensor_id;sensor_type;location;lat;lon;timestamp;P1;durP1;ratioP1;P2;durP2;ratioP2
73557;SDS011;61829;53.286;10.434;2023-03-15T00:01:40;3.53;;;1.50;;
73557;SDS011;61829;53.286;10.434;2023-03-15T00:04:06;3.70;;;0.80;;
73557;SDS011;61829;53.286;10.434;2023-03-15T00:06:32;5.18;;;1.10;;
73557;SDS011;61829;53.286;10.434;2023-03-15T00:08:59;3.85;;;1.27;;
73557;SDS011;61829;53.286;10.434;2023-03-15T00:11:27;3.42;;;1.10;;
73557;SDS011;61829;53.286;10.434;2023-03-15T00:13:57;3.25;;;1.25;;
73557;SDS011;61829;53.286;10.434;2023-03-15T00:16:23;2.63;;;1.08;;
73557;SDS011;61829;53.286;10.434;2023-03-15T00:18:54;8.95;;;1.30;;
73557;SDS011;61829;53.286;10.434;2023-03-15T00:21:21;3.55;;;0.80;;
73557;SDS011;61829;53.286;10.434;2023-03-15T00:23:47;2.63;;;0.88;;
73557;SDS011;61829;53.286;10.434;2023-03-15T00:26:14;2.33;;;1.02;;
73557;SDS011;61829;53.286;10.434;2023-03-15T00:28:41;3.83;;;0.90;;
73557;SDS011;61829;53.286;10.434;2023-03-15T00:31:21;1.58;;;0.80;;
73557;SDS011;61829;53.286;10.434;2023-03-15T00:33:49;4.47;;;1.10;;
73557;SDS011;61829;53.286;10.434;2023-03-15T00:36:18;4.13;;;1.10;;
73557;SDS011;61829;53.286;10.434;2023-03-15T00:38:48;3.30;;;0.95;;
73557;SDS011;61829;53.286;10.434;2023-03-15T00:41:16;2.50;;;1.10;;
73557;SDS011;61829;53.286;10.434;2023-03-15T00:43:43;4.78;;;1.30;;
73557;SDS011;61829;53.286;10.434;2023-03-15T00:46:10;3.70;;;1.60;;
73557;SDS011;61829;53.286;10.434;2023-03-15T00:48:36;4.13;;;1.23;;
73557;SDS011;61829;53.286;10.434;2023-03-15T00:51:06;3.90;;;1.23;;
73557;SDS011;61829;53.286;10.434;2023-03-15T00:53:34;3.67;;;0.98;;
73557;SDS011;61829;53.286;10.434;2023-03-15T00:56:05;3.63;;;1.35;;
73557;SDS011;61829;53.286;10.434;2023-03-15T00:58:32;5.15;;;1.40;;
73557;SDS011;61829;53.286;10.434;2023-03-15T01:00:58;3.83;;;1.30;;
73557;SDS011;61829;53.286;10.434;2023-03-15T01:03:26;4.43;;;1.50;;
73557;SDS011;61829;53.286;10.434;2023-03-15T01:05:52;3.97;;;1.27;;
73557;SDS011;61829;53.286;10.434;2023-03-15T01:08:18;6.43;;;1.30;;
73557;SDS011;61829;53.286;10.434;2023-03-15T01:10:44;6.68;;;1.73;;
73557;SDS011;61829;53.286;10.434;2023-03-15T01:13:10;11.95;;;2.40;;
73557;SDS011;61829;53.286;10.434;2023-03-15T01:15:36;2.78;;;1.60;;
73557;SDS011;61829;53.286;10.434;2023-03-15T01:18:02;6.47;;;1.67;;
73557;SDS011;61829;53.286;10.434;2023-03-15T01:20:28;6.30;;;1.50;;
73557;SDS011;61829;53.286;10.434;2023-03-15T01:22:53;8.15;;;1.70;;
73557;SDS011;61829;53.286;10.434;2023-03-15T01:25:19;3.90;;;1.13;;
73557;SDS011;61829;53.286;10.434;2023-03-15T01:27:45;8.55;;;1.65;;
73557;SDS011;61829;53.286;10.434;2023-03-15T01:30:11;5.90;;;1.45;;
73557;SDS011;61829;53.286;10.434;2023-03-15T01:32:37;9.38;;;2.13;;
73557;SDS011;61829;53.286;10.434;2023-03-15T01:35:03;3.55;;;1.40;;
73557;SDS011;61829;53.286;10.434;2023-03-15T01:37:29;7.38;;;1.67;;
73557;SDS011;61829;53.286;10.434;2023-03-15T01:39:55;6.13;;;1.52;;
73557;SDS011;61829;53.286;10.434;2023-03-15T01:42:21;6.05;;;1.63;;
73557;SDS011;61829;53.286;10.434;2023-03-15T01:44:48;4.13;;;1.55;;
73557;SDS011;61829;53.286;10.434;2023-03-15T01:47:24;5.82;;;1.30;;
73557;SDS011;61829;53.286;10.434;2023-03-15T01:50:14;6.05;;;1.63;;
73557;SDS011;61829;53.286;10.434;2023-03-15T01:52:39;5.20;;;1.40;;
73557;SDS011;61829;53.286;10.434;2023-03-15T01:55:14;5.35;;;1.60;;
73557;SDS011;61829;53.286;10.434;2023-03-15T01:57:44;3.80;;;1.60;;
73557;SDS011;61829;53.286;10.434;2023-03-15T02:00:16;9.90;;;1.40;;
73557;SDS011;61829;53.286;10.434;2023-03-15T02:02:45;3.72;;;1.17;;
73557;SDS011;61829;53.286;10.434;2023-03-15T02:05:20;7.45;;;1.40;;
73557;SDS011;61829;53.286;10.434;2023-03-15T02:07:48;6.90;;;1.35;;
73557;SDS011;61829;53.286;10.434;2023-03-15T02:12:53;3.75;;;1.48;;
73557;SDS011;61829;53.286;10.434;2023-03-15T02:15:20;6.13;;;1.20;;
73557;SDS011;61829;53.286;10.434;2023-03-15T02:17:46;5.85;;;1.52;;
73557;SDS011;61829;53.286;10.434;2023-03-15T02:28:16;2.75;;;1.30;;
73557;SDS011;61829;53.286;10.434;2023-03-15T02:30:44;8.60;;;1.75;;
73557;SDS011;61829;53.286;10.434;2023-03-15T02:35:42;4.53;;;1.17;;
73557;SDS011;61829;53.286;10.434;2023-03-15T02:38:07;6.93;;;1.25;;
73557;SDS011;61829;53.286;10.434;2023-03-15T02:40:34;4.55;;;1.50;;
73557;SDS011;61829;53.286;10.434;2023-03-15T02:43:00;5.60;;;1.40;;
73557;SDS011;61829;53.286;10.434;2023-03-15T02:45:33;4.07;;;1.60;;
73557;SDS011;61829;53.286;10.434;2023-03-15T02:48:01;4.72;;;1.40;;
73557;SDS011;61829;53.286;10.434;2023-03-15T02:50:30;4.60;;;1.70;;
73557;SDS011;61829;53.286;10.434;2023-03-15T02:52:56;4.10;;;1.92;;
73557;SDS011;61829;53.286;10.434;2023-03-15T02:55:22;5.28;;;1.95;;
73557;SDS011;61829;53.286;10.434;2023-03-15T02:57:48;2.78;;;1.70;;
73557;SDS011;61829;53.286;10.434;2023-03-15T03:00:14;5.47;;;1.92;;
73557;SDS011;61829;53.286;10.434;2023-03-15T03:02:41;5.45;;;1.95;;
73557;SDS011;61829;53.286;10.434;2023-03-15T03:05:11;5.85;;;2.08;;
73557;SDS011;61829;53.286;10.434;2023-03-15T03:07:38;4.97;;;2.22;;
73557;SDS011;61829;53.286;10.434;2023-03-15T03:10:10;6.30;;;2.08;;
73557;SDS011;61829;53.286;10.434;2023-03-15T03:12:37;6.55;;;1.95;;
73557;SDS011;61829;53.286;10.434;2023-03-15T03:15:03;7.95;;;2.50;;
73557;SDS011;61829;53.286;10.434;2023-03-15T03:17:30;6.57;;;2.00;;
73557;SDS011;61829;53.286;10.434;2023-03-15T03:19:56;5.53;;;2.17;;
73557;SDS011;61829;53.286;10.434;2023-03-15T03:22:22;7.43;;;2.20;;
73557;SDS011;61829;53.286;10.434;2023-03-15T03:24:51;9.82;;;2.60;;
73557;SDS011;61829;53.286;10.434;2023-03-15T03:27:17;10.70;;;2.88;;
73557;SDS011;61829;53.286;10.434;2023-03-15T03:29:43;9.30;;;2.60;;
73557;SDS011;61829;53.286;10.434;2023-03-15T03:32:09;6.90;;;2.17;;
73557;SDS011;61829;53.286;10.434;2023-03-15T03:34:35;6.68;;;2.30;;
73557;SDS011;61829;53.286;10.434;2023-03-15T03:37:01;5.18;;;2.17;;
73557;SDS011;61829;53.286;10.434;2023-03-15T03:39:27;7.70;;;2.30;;
73557;SDS011;61829;53.286;10.434;2023-03-15T03:41:53;6.63;;;2.33;;
73557;SDS011;61829;53.286;10.434;2023-03-15T03:44:19;10.50;;;3.08;;
73557;SDS011;61829;53.286;10.434;2023-03-15T03:46:45;9.55;;;2.30;;
73557;SDS011;61829;53.286;10.434;2023-03-15T03:49:10;10.10;;;2.45;;
73557;SDS011;61829;53.286;10.434;2023-03-15T03:51:36;11.65;;;2.53;;
73557;SDS011;61829;53.286;10.434;2023-03-15T03:54:02;6.10;;;2.40;;
73557;SDS011;61829;53.286;10.434;2023-03-15T03:56:29;8.52;;;2.53;;
73557;SDS011;61829;53.286;10.434;2023-03-15T03:58:55;7.30;;;2.42;;
73557;SDS011;61829;53.286;10.434;2023-03-15T04:01:21;7.53;;;2.95;;
73557;SDS011;61829;53.286;10.434;2023-03-15T04:03:48;4.95;;;2.50;;
73557;SDS011;61829;53.286;10.434;2023-03-15T04:06:14;6.82;;;2.83;;
73557;SDS011;61829;53.286;10.434;2023-03-15T04:08:41;7.40;;;2.40;;
73557;SDS011;61829;53.286;10.434;2023-03-15T04:11:07;10.57;;;3.28;;
73557;SDS011;61829;53.286;10.434;2023-03-15T04:13:33;6.38;;;2.60;;
73557;SDS011;61829;53.286;10.434;2023-03-15T04:15:58;8.18;;;2.70;;
73557;SDS011;61829;53.286;10.434;2023-03-15T04:18:26;6.15;;;2.78;;
73557;SDS011;61829;53.286;10.434;2023-03-15T04:20:52;10.82;;;3.20;;
73557;SDS011;61829;53.286;10.434;2023-03-15T04:23:19;7.88;;;2.85;;
73557;SDS011;61829;53.286;10.434;2023-03-15T04:25:50;8.75;;;3.28;;
73557;SDS011;61829;53.286;10.434;2023-03-15T04:28:17;8.48;;;2.92;;
73557;SDS011;61829;53.286;10.434;2023-03-15T04:30:46;6.80;;;3.25;;
73557;SDS011;61829;53.286;10.434;2023-03-15T04:33:13;11.75;;;2.72;;
73557;SDS011;61829;53.286;10.434;2023-03-15T04:35:39;10.45;;;3.20;;
73557;SDS011;61829;53.286;10.434;2023-03-15T04:38:07;11.23;;;3.03;;
73557;SDS011;61829;53.286;10.434;2023-03-15T04:40:33;6.53;;;3.05;;
73557;SDS011;61829;53.286;10.434;2023-03-15T04:43:00;6.88;;;2.85;;
73557;SDS011;61829;53.286;10.434;2023-03-15T04:45:28;14.35;;;3.58;;
73557;SDS011;61829;53.286;10.434;2023-03-15T04:47:56;7.53;;;3.47;;
73557;SDS011;61829;53.286;10.434;2023-03-15T04:50:22;8.18;;;2.90;;
73557;SDS011;61829;53.286;10.434;2023-03-15T04:52:49;6.22;;;2.85;;
73557;SDS011;61829;53.286;10.434;2023-03-15T04:55:15;6.38;;;2.70;;
73557;SDS011;61829;53.286;10.434;2023-03-15T04:57:41;6.88;;;2.63;;
73557;SDS011;61829;53.286;10.434;2023-03-15T05:00:08;10.35;;;2.72;;
73557;SDS011;61829;53.286;10.434;2023-03-15T05:02:37;8.35;;;2.85;;
73557;SDS011;61829;53.286;10.434;2023-03-15T05:05:06;12.05;;;3.88;;
73557;SDS011;61829;53.286;10.434;2023-03-15T05:07:33;12.75;;;2.95;;
73557;SDS011;61829;53.286;10.434;2023-03-15T05:10:00;10.52;;;3.30;;
73557;SDS011;61829;53.286;10.434;2023-03-15T05:12:27;10.98;;;2.95;;
73557;SDS011;61829;53.286;10.434;2023-03-15T05:14:52;10.50;;;2.97;;
73557;SDS011;61829;53.286;10.434;2023-03-15T05:17:19;7.68;;;2.85;;
73557;SDS011;61829;53.286;10.434;2023-03-15T05:19:47;11.63;;;2.90;;
73557;SDS011;61829;53.286;10.434;2023-03-15T05:22:13;10.10;;;2.67;;
73557;SDS011;61829;53.286;10.434;2023-03-15T05:24:39;10.90;;;2.50;;
73557;SDS011;61829;53.286;10.434;2023-03-15T05:27:05;13.65;;;3.00;;
73557;SDS011;61829;53.286;10.434;2023-03-15T05:29:31;8.85;;;2.50;;
73557;SDS011;61829;53.286;10.434;2023-03-15T05:31:57;5.32;;;2.85;;
73557;SDS011;61829;53.286;10.434;2023-03-15T05:34:23;5.90;;;2.55;;
73557;SDS011;61829;53.286;10.434;2023-03-15T05:36:49;9.52;;;2.70;;
73557;SDS011;61829;53.286;10.434;2023-03-15T05:39:16;11.88;;;3.38;;
73557;SDS011;61829;53.286;10.434;2023-03-15T05:41:42;6.85;;;2.90;;
73557;SDS011;61829;53.286;10.434;2023-03-15T05:44:08;5.30;;;2.42;;
73557;SDS011;61829;53.286;10.434;2023-03-15T05:46:35;7.30;;;3.25;;
73557;SDS011;61829;53.286;10.434;2023-03-15T05:49:00;9.13;;;2.90;;
73557;SDS011;61829;53.286;10.434;2023-03-15T05:51:26;6.35;;;3.05;;
73557;SDS011;61829;53.286;10.434;2023-03-15T05:53:52;9.15;;;3.03;;
73557;SDS011;61829;53.286;10.434;2023-03-15T05:56:18;5.38;;;2.63;;
73557;SDS011;61829;53.286;10.434;2023-03-15T05:58:44;10.85;;;3.15;;
73557;SDS011;61829;53.286;10.434;2023-03-15T06:01:09;4.70;;;2.72;;
73557;SDS011;61829;53.286;10.434;2023-03-15T06:03:35;8.68;;;2.70;;
73557;SDS011;61829;53.286;10.434;2023-03-15T06:06:01;5.57;;;2.55;;
73557;SDS011;61829;53.286;10.434;2023-03-15T06:08:27;11.65;;;3.05;;
73557;SDS011;61829;53.286;10.434;2023-03-15T06:10:53;7.43;;;3.47;;
73557;SDS011;61829;53.286;10.434;2023-03-15T06:13:20;4.25;;;2.40;;
73557;SDS011;61829;53.286;10.434;2023-03-15T06:15:46;10.10;;;2.75;;
73557;SDS011;61829;53.286;10.434;2023-03-15T06:18:12;7.15;;;2.72;;
73557;SDS011;61829;53.286;10.434;2023-03-15T06:20:39;10.00;;;3.10;;
73557;SDS011;61829;53.286;10.434;2023-03-15T06:23:05;7.88;;;3.20;;
73557;SDS011;61829;53.286;10.434;2023-03-15T06:25:31;6.53;;;2.47;;
73557;SDS011;61829;53.286;10.434;2023-03-15T06:27:57;5.63;;;2.55;;
73557;SDS011;61829;53.286;10.434;2023-03-15T06:30:23;7.07;;;2.85;;
73557;SDS011;61829;53.286;10.434;2023-03-15T06:32:50;7.47;;;2.72;;
73557;SDS011;61829;53.286;10.434;2023-03-15T06:35:17;4.75;;;2.67;;
73557;SDS011;61829;53.286;10.434;2023-03-15T06:37:43;8.52;;;2.55;;
73557;SDS011;61829;53.286;10.434;2023-03-15T06:40:09;9.80;;;2.55;;
73557;SDS011;61829;53.286;10.434;2023-03-15T06:42:36;4.38;;;2.25;;
73557;SDS011;61829;53.286;10.434;2023-03-15T06:45:03;6.20;;;2.20;;
73557;SDS011;61829;53.286;10.434;2023-03-15T06:47:30;7.57;;;2.90;;
73557;SDS011;61829;53.286;10.434;2023-03-15T06:49:56;7.28;;;2.03;;
73557;SDS011;61829;53.286;10.434;2023-03-15T06:52:22;5.95;;;2.28;;
73557;SDS011;61829;53.286;10.434;2023-03-15T06:54:48;5.80;;;2.30;;
73557;SDS011;61829;53.286;10.434;2023-03-15T06:57:14;6.65;;;2.28;;
73557;SDS011;61829;53.286;10.434;2023-03-15T06:59:40;7.80;;;2.28;;
73557;SDS011;61829;53.286;10.434;2023-03-15T07:02:12;7.53;;;2.65;;
73557;SDS011;61829;53.286;10.434;2023-03-15T07:04:39;8.25;;;2.28;;
73557;SDS011;61829;53.286;10.434;2023-03-15T07:07:05;7.40;;;2.40;;
73557;SDS011;61829;53.286;10.434;2023-03-15T07:09:31;6.38;;;2.15;;
73557;SDS011;61829;53.286;10.434;2023-03-15T07:11:57;5.32;;;2.33;;
73557;SDS011;61829;53.286;10.434;2023-03-15T07:17:26;4.13;;;1.83;;
73557;SDS011;61829;53.286;10.434;2023-03-15T07:19:52;5.32;;;1.98;;
73557;SDS011;61829;53.286;10.434;2023-03-15T07:22:18;4.63;;;2.25;;
73557;SDS011;61829;53.286;10.434;2023-03-15T07:24:47;5.30;;;1.95;;
73557;SDS011;61829;53.286;10.434;2023-03-15T07:27:13;4.35;;;1.77;;
73557;SDS011;61829;53.286;10.434;2023-03-15T07:29:39;5.78;;;1.90;;
73557;SDS011;61829;53.286;10.434;2023-03-15T07:32:05;5.57;;;1.85;;
73557;SDS011;61829;53.286;10.434;2023-03-15T07:34:32;3.97;;;1.70;;
73557;SDS011;61829;53.286;10.434;2023-03-15T07:36:57;5.68;;;1.92;;
73557;SDS011;61829;53.286;10.434;2023-03-15T07:39:24;4.60;;;2.63;;
73557;SDS011;61829;53.286;10.434;2023-03-15T07:41:51;5.05;;;1.63;;
73557;SDS011;61829;53.286;10.434;2023-03-15T07:44:17;4.68;;;1.58;;
73557;SDS011;61829;53.286;10.434;2023-03-15T07:46:43;5.70;;;1.70;;
73557;SDS011;61829;53.286;10.434;2023-03-15T07:49:09;3.95;;;1.70;;
73557;SDS011;61829;53.286;10.434;2023-03-15T07:51:35;5.93;;;1.60;;
73557;SDS011;61829;53.286;10.434;2023-03-15T07:54:01;3.30;;;1.50;;
73557;SDS011;61829;53.286;10.434;2023-03-15T07:56:26;5.05;;;1.48;;
73557;SDS011;61829;53.286;10.434;2023-03-15T07:58:53;4.35;;;1.40;;
73557;SDS011;61829;53.286;10.434;2023-03-15T08:01:18;3.15;;;1.45;;
73557;SDS011;61829;53.286;10.434;2023-03-15T08:03:44;2.40;;;1.23;;
73557;SDS011;61829;53.286;10.434;2023-03-15T08:06:10;6.75;;;1.92;;
73557;SDS011;61829;53.286;10.434;2023-03-15T08:08:36;4.35;;;1.55;;
73557;SDS011;61829;53.286;10.434;2023-03-15T08:11:03;4.63;;;1.40;;
73557;SDS011;61829;53.286;10.434;2023-03-15T08:13:35;4.03;;;1.60;;
73557;SDS011;61829;53.286;10.434;2023-03-15T08:16:01;4.22;;;1.55;;
73557;SDS011;61829;53.286;10.434;2023-03-15T08:18:27;5.28;;;1.83;;
73557;SDS011;61829;53.286;10.434;2023-03-15T08:20:55;6.10;;;1.52;;
73557;SDS011;61829;53.286;10.434;2023-03-15T08:23:21;2.97;;;1.20;;
73557;SDS011;61829;53.286;10.434;2023-03-15T08:25:47;5.43;;;1.40;;
73557;SDS011;61829;53.286;10.434;2023-03-15T08:28:14;3.03;;;1.20;;
73557;SDS011;61829;53.286;10.434;2023-03-15T08:30:40;5.25;;;1.48;;
73557;SDS011;61829;53.286;10.434;2023-03-15T08:33:07;5.75;;;1.35;;
73557;SDS011;61829;53.286;10.434;2023-03-15T08:35:33;1.30;;;0.80;;
73557;SDS011;61829;53.286;10.434;2023-03-15T08:38:00;2.83;;;0.65;;
73557;SDS011;61829;53.286;10.434;2023-03-15T08:40:27;1.70;;;0.90;;
73557;SDS011;61829;53.286;10.434;2023-03-15T08:42:54;1.83;;;0.85;;
73557;SDS011;61829;53.286;10.434;2023-03-15T08:45:21;1.38;;;0.88;;
73557;SDS011;61829;53.286;10.434;2023-03-15T08:47:54;3.67;;;1.23;;
73557;SDS011;61829;53.286;10.434;2023-03-15T08:50:21;2.47;;;1.30;;
73557;SDS011;61829;53.286;10.434;2023-03-15T08:52:47;5.13;;;1.73;;
73557;SDS011;61829;53.286;10.434;2023-03-15T08:55:13;4.55;;;1.50;;
73557;SDS011;61829;53.286;10.434;2023-03-15T08:57:39;5.88;;;1.70;;
73557;SDS011;61829;53.286;10.434;2023-03-15T09:00:06;7.32;;;1.80;;
73557;SDS011;61829;53.286;10.434;2023-03-15T09:02:34;2.88;;;1.20;;
73557;SDS011;61829;53.286;10.434;2023-03-15T09:05:00;3.38;;;1.50;;
73557;SDS011;61829;53.286;10.434;2023-03-15T09:07:26;2.88;;;1.15;;
73557;SDS011;61829;53.286;10.434;2023-03-15T09:09:52;2.88;;;0.98;;
73557;SDS011;61829;53.286;10.434;2023-03-15T09:12:19;2.38;;;1.00;;
73557;SDS011;61829;53.286;10.434;2023-03-15T09:14:45;2.22;;;0.82;;
73557;SDS011;61829;53.286;10.434;2023-03-15T09:17:12;1.42;;;0.80;;
73557;SDS011;61829;53.286;10.434;2023-03-15T09:19:38;3.17;;;0.77;;
73557;SDS011;61829;53.286;10.434;2023-03-15T09:22:04;1.80;;;0.80;;
73557;SDS011;61829;53.286;10.434;2023-03-15T09:24:30;2.92;;;0.88;;
73557;SDS011;61829;53.286;10.434;2023-03-15T09:26:57;1.80;;;0.80;;
73557;SDS011;61829;53.286;10.434;2023-03-15T09:29:23;3.67;;;0.77;;
73557;SDS011;61829;53.286;10.434;2023-03-15T09:31:49;2.40;;;0.90;;
73557;SDS011;61829;53.286;10.434;2023-03-15T09:34:15;4.43;;;1.27;;
73557;SDS011;61829;53.286;10.434;2023-03-15T09:36:41;2.33;;;1.00;;
73557;SDS011;61829;53.286;10.434;2023-03-15T09:39:06;4.13;;;1.00;;
73557;SDS011;61829;53.286;10.434;2023-03-15T09:41:43;2.45;;;0.90;;
73557;SDS011;61829;53.286;10.434;2023-03-15T09:44:24;2.85;;;1.13;;
73557;SDS011;61829;53.286;10.434;2023-03-15T09:49:47;4.18;;;1.00;;
73557;SDS011;61829;53.286;10.434;2023-03-15T09:55:05;4.63;;;0.98;;
73557;SDS011;61829;53.286;10.434;2023-03-15T09:57:40;4.40;;;1.10;;
73557;SDS011;61829;53.286;10.434;2023-03-15T10:00:18;2.92;;;0.90;;
73557;SDS011;61829;53.286;10.434;2023-03-15T10:02:50;6.20;;;1.30;;
73557;SDS011;61829;53.286;10.434;2023-03-15T10:05:25;5.18;;;1.25;;
73557;SDS011;61829;53.286;10.434;2023-03-15T10:07:59;3.70;;;1.00;;
73557;SDS011;61829;53.286;10.434;2023-03-15T10:10:27;4.55;;;1.10;;
73557;SDS011;61829;53.286;10.434;2023-03-15T10:13:04;4.80;;;1.05;;
73557;SDS011;61829;53.286;10.434;2023-03-15T10:15:48;2.85;;;1.02;;
73557;SDS011;61829;53.286;10.434;2023-03-15T10:26:57;2.40;;;0.95;;
73557;SDS011;61829;53.286;10.434;2023-03-15T10:29:30;3.38;;;1.02;;
73557;SDS011;61829;53.286;10.434;2023-03-15T10:31:56;2.65;;;1.20;;
73557;SDS011;61829;53.286;10.434;2023-03-15T10:34:22;2.95;;;0.82;;
73557;SDS011;61829;53.286;10.434;2023-03-15T10:36:50;4.63;;;0.85;;
73557;SDS011;61829;53.286;10.434;2023-03-15T10:39:20;5.30;;;1.30;;
73557;SDS011;61829;53.286;10.434;2023-03-15T10:41:47;7.22;;;1.05;;
73557;SDS011;61829;53.286;10.434;2023-03-15T10:44:24;6.68;;;1.30;;
73557;SDS011;61829;53.286;10.434;2023-03-15T10:49:38;3.63;;;0.90;;
73557;SDS011;61829;53.286;10.434;2023-03-15T10:52:06;2.10;;;0.80;;
73557;SDS011;61829;53.286;10.434;2023-03-15T10:54:56;3.22;;;1.02;;
73557;SDS011;61829;53.286;10.434;2023-03-15T10:57:27;5.80;;;1.25;;
73557;SDS011;61829;53.286;10.434;2023-03-15T10:59:59;4.00;;;1.08;;
73557;SDS011;61829;53.286;10.434;2023-03-15T11:02:34;3.50;;;1.23;;
73557;SDS011;61829;53.286;10.434;2023-03-15T11:05:03;4.82;;;1.10;;
73557;SDS011;61829;53.286;10.434;2023-03-15T11:07:36;3.67;;;0.90;;
73557;SDS011;61829;53.286;10.434;2023-03-15T11:10:04;6.20;;;1.20;;
73557;SDS011;61829;53.286;10.434;2023-03-15T11:12:31;2.00;;;0.70;;
73557;SDS011;61829;53.286;10.434;2023-03-15T11:15:01;2.60;;;0.90;;
73557;SDS011;61829;53.286;10.434;2023-03-15T11:17:40;3.40;;;1.08;;
73557;SDS011;61829;53.286;10.434;2023-03-15T11:22:51;2.50;;;1.10;;
73557;SDS011;61829;53.286;10.434;2023-03-15T11:27:45;2.50;;;0.90;;
73557;SDS011;61829;53.286;10.434;2023-03-15T11:30:18;2.30;;;0.63;;
73557;SDS011;61829;53.286;10.434;2023-03-15T11:32:49;2.55;;;0.80;;
73557;SDS011;61829;53.286;10.434;2023-03-15T11:35:18;3.22;;;0.73;;
73557;SDS011;61829;53.286;10.434;2023-03-15T11:37:50;2.03;;;0.77;;
73557;SDS011;61829;53.286;10.434;2023-03-15T11:40:21;2.78;;;0.85;;
73557;SDS011;61829;53.286;10.434;2023-03-15T11:45:34;1.35;;;0.70;;
73557;SDS011;61829;53.286;10.434;2023-03-15T11:48:16;2.10;;;0.57;;
73557;SDS011;61829;53.286;10.434;2023-03-15T11:50:51;1.33;;;0.63;;
73557;SDS011;61829;53.286;10.434;2023-03-15T11:53:18;2.25;;;0.65;;
73557;SDS011;61829;53.286;10.434;2023-03-15T11:55:48;3.58;;;0.90;;
73557;SDS011;61829;53.286;10.434;2023-03-15T12:01:03;3.00;;;0.80;;
73557;SDS011;61829;53.286;10.434;2023-03-15T12:13:49;2.28;;;0.55;;
73557;SDS011;61829;53.286;10.434;2023-03-15T12:16:22;4.57;;;0.98;;
73557;SDS011;61829;53.286;10.434;2023-03-15T12:18:50;3.15;;;0.85;;
73557;SDS011;61829;53.286;10.434;2023-03-15T12:22:18;4.45;;;0.95;;
73557;SDS011;61829;53.286;10.434;2023-03-15T12:26:56;2.53;;;1.15;;
73557;SDS011;61829;53.286;10.434;2023-03-15T12:29:26;4.95;;;1.90;;
73557;SDS011;61829;53.286;10.434;2023-03-15T12:31:56;3.90;;;1.13;;
73557;SDS011;61829;53.286;10.434;2023-03-15T12:39:39;7.80;;;1.60;;
73557;SDS011;61829;53.286;10.434;2023-03-15T12:42:12;4.65;;;0.90;;
73557;SDS011;61829;53.286;10.434;2023-03-15T12:53:02;2.85;;;0.93;;
73557;SDS011;61829;53.286;10.434;2023-03-15T12:55:38;3.30;;;0.90;;
73557;SDS011;61829;53.286;10.434;2023-03-15T12:58:05;4.78;;;1.00;;
73557;SDS011;61829;53.286;10.434;2023-03-15T13:00:37;6.70;;;1.40;;
73557;SDS011;61829;53.286;10.434;2023-03-15T13:03:11;6.35;;;2.13;;
73557;SDS011;61829;53.286;10.434;2023-03-15T13:19:53;2.20;;;0.63;;
73557;SDS011;61829;53.286;10.434;2023-03-15T13:22:33;2.55;;;0.80;;
73557;SDS011;61829;53.286;10.434;2023-03-15T13:25:15;5.70;;;0.85;;
73557;SDS011;61829;53.286;10.434;2023-03-15T13:30:46;3.42;;;0.73;;
73557;SDS011;61829;53.286;10.434;2023-03-15T13:33:20;1.50;;;0.57;;
73557;SDS011;61829;53.286;10.434;2023-03-15T13:35:58;2.85;;;0.80;;
73557;SDS011;61829;53.286;10.434;2023-03-15T13:40:52;3.53;;;0.80;;
73557;SDS011;61829;53.286;10.434;2023-03-15T13:43:22;2.22;;;0.80;;
73557;SDS011;61829;53.286;10.434;2023-03-15T13:45:50;1.88;;;0.68;;
73557;SDS011;61829;53.286;10.434;2023-03-15T13:48:16;1.02;;;0.55;;
73557;SDS011;61829;53.286;10.434;2023-03-15T13:50:47;3.72;;;0.90;;
73557;SDS011;61829;53.286;10.434;2023-03-15T13:53:17;3.53;;;1.05;;
73557;SDS011;61829;53.286;10.434;2023-03-15T13:55:48;3.22;;;0.93;;
73557;SDS011;61829;53.286;10.434;2023-03-15T13:58:17;7.05;;;1.40;;
73557;SDS011;61829;53.286;10.434;2023-03-15T14:00:44;6.07;;;1.70;;
73557;SDS011;61829;53.286;10.434;2023-03-15T14:03:12;4.60;;;1.10;;
73557;SDS011;61829;53.286;10.434;2023-03-15T14:05:46;2.03;;;0.63;;
73557;SDS011;61829;53.286;10.434;2023-03-15T14:08:19;2.60;;;0.90;;
73557;SDS011;61829;53.286;10.434;2023-03-15T14:10:56;4.25;;;0.90;;
73557;SDS011;61829;53.286;10.434;2023-03-15T14:15:54;3.15;;;0.70;;
73557;SDS011;61829;53.286;10.434;2023-03-15T14:18:23;2.28;;;0.70;;
73557;SDS011;61829;53.286;10.434;2023-03-15T14:21:18;4.68;;;0.95;;
73557;SDS011;61829;53.286;10.434;2023-03-15T14:23:55;4.25;;;0.70;;
73557;SDS011;61829;53.286;10.434;2023-03-15T14:26:22;4.82;;;0.93;;
73557;SDS011;61829;53.286;10.434;2023-03-15T14:31:22;2.55;;;1.10;;
73557;SDS011;61829;53.286;10.434;2023-03-15T14:36:42;3.60;;;1.40;;
73557;SDS011;61829;53.286;10.434;2023-03-15T14:39:23;2.83;;;0.90;;
73557;SDS011;61829;53.286;10.434;2023-03-15T14:41:49;2.40;;;0.80;;
73557;SDS011;61829;53.286;10.434;2023-03-15T14:44:15;2.88;;;1.00;;
73557;SDS011;61829;53.286;10.434;2023-03-15T14:46:53;2.80;;;0.90;;
73557;SDS011;61829;53.286;10.434;2023-03-15T14:49:22;3.47;;;0.90;;
73557;SDS011;61829;53.286;10.434;2023-03-15T14:51:51;1.40;;;0.68;;
73557;SDS011;61829;53.286;10.434;2023-03-15T14:54:46;3.50;;;0.90;;
73557;SDS011;61829;53.286;10.434;2023-03-15T14:57:14;4.18;;;1.00;;
73557;SDS011;61829;53.286;10.434;2023-03-15T14:59:40;5.85;;;1.13;;
73557;SDS011;61829;53.286;10.434;2023-03-15T15:02:08;3.47;;;0.95;;
73557;SDS011;61829;53.286;10.434;2023-03-15T15:04:40;4.00;;;0.90;;
73557;SDS011;61829;53.286;10.434;2023-03-15T15:07:11;3.83;;;0.90;;
73557;SDS011;61829;53.286;10.434;2023-03-15T15:09:40;2.30;;;0.82;;
73557;SDS011;61829;53.286;10.434;2023-03-15T15:12:13;4.60;;;0.70;;
73557;SDS011;61829;53.286;10.434;2023-03-15T15:14:39;2.92;;;0.75;;
73557;SDS011;61829;53.286;10.434;2023-03-15T15:17:09;4.10;;;0.77;;
73557;SDS011;61829;53.286;10.434;2023-03-15T15:19:35;4.07;;;0.90;;
73557;SDS011;61829;53.286;10.434;2023-03-15T15:22:03;3.10;;;0.80;;
73557;SDS011;61829;53.286;10.434;2023-03-15T15:24:28;2.00;;;0.88;;
73557;SDS011;61829;53.286;10.434;2023-03-15T15:26:56;3.70;;;0.82;;
73557;SDS011;61829;53.286;10.434;2023-03-15T15:29:22;2.72;;;0.70;;
73557;SDS011;61829;53.286;10.434;2023-03-15T15:31:48;2.47;;;0.82;;
73557;SDS011;61829;53.286;10.434;2023-03-15T15:34:14;2.97;;;0.80;;
73557;SDS011;61829;53.286;10.434;2023-03-15T15:36:43;1.27;;;0.60;;
73557;SDS011;61829;53.286;10.434;2023-03-15T15:39:20;4.53;;;1.70;;
73557;SDS011;61829;53.286;10.434;2023-03-15T15:41:48;5.57;;;1.63;;
73557;SDS011;61829;53.286;10.434;2023-03-15T15:44:15;6.65;;;1.65;;
73557;SDS011;61829;53.286;10.434;2023-03-15T15:46:43;2.85;;;1.23;;
73557;SDS011;61829;53.286;10.434;2023-03-15T15:49:08;6.13;;;1.02;;
73557;SDS011;61829;53.286;10.434;2023-03-15T15:51:41;5.28;;;1.00;;
73557;SDS011;61829;53.286;10.434;2023-03-15T15:54:16;5.43;;;1.42;;
73557;SDS011;61829;53.286;10.434;2023-03-15T15:56:46;3.67;;;1.50;;
73557;SDS011;61829;53.286;10.434;2023-03-15T15:59:14;7.15;;;1.38;;
73557;SDS011;61829;53.286;10.434;2023-03-15T16:01:42;1.52;;;0.80;;
73557;SDS011;61829;53.286;10.434;2023-03-15T16:04:09;5.40;;;1.38;;
73557;SDS011;61829;53.286;10.434;2023-03-15T16:06:35;4.45;;;1.23;;
73557;SDS011;61829;53.286;10.434;2023-03-15T16:09:02;3.55;;;1.42;;
73557;SDS011;61829;53.286;10.434;2023-03-15T16:11:31;5.95;;;1.50;;
73557;SDS011;61829;53.286;10.434;2023-03-15T16:13:59;3.75;;;1.55;;
73557;SDS011;61829;53.286;10.434;2023-03-15T16:16:26;7.47;;;1.30;;
73557;SDS011;61829;53.286;10.434;2023-03-15T16:18:51;7.93;;;1.48;;